Time;durP1;ratioP1;P1;durP2;ratioP2;P2;SDS_P1;SDS_P2;PMS_P1;PMS_P2;Temp;Humidity;BMP_temperature;BMP_pressure;BME280_temperature;BME280_humidity;BME280_pressure;Samples;Min_cycle;Max_cycle;Signal;HPM_P1;HPM_P2
2022/10/21 00:00:19;;;;;;;6.68;5.50;;;9.80;99.90;;;;;;4959204;28;20030;-80
2022/10/21 00:02:45;;;;;;;6.97;5.82;;;9.90;99.90;;;;;;4989357;28;20034;-80
2022/10/21 00:05:12;;;;;;;7.85;5.82;;;9.90;99.90;;;;;;4960872;28;20038;-79
2022/10/21 00:07:37;;;;;;;8.23;6.68;;;10.00;99.90;;;;;;4993831;28;20142;-80
2022/10/21 00:10:05;;;;;;;8.93;6.70;;;10.00;99.90;;;;;;4955000;28;20062;-82
2022/10/21 00:12:31;;;;;;;12.25;6.65;;;9.90;99.90;;;;;;4981446;28;20113;-80
2022/10/21 00:14:57;;;;;;;9.02;6.05;;;9.90;99.90;;;;;;4979746;28;20058;-80
2022/10/21 00:17:23;;;;;;;9.95;5.93;;;9.90;99.90;;;;;;4994028;28;20022;-80
2022/10/21 00:19:49;;;;;;;10.52;6.50;;;10.00;99.90;;;;;;4974215;28;20578;-80
2022/10/21 00:22:15;;;;;;;8.93;6.72;;;10.00;99.90;;;;;;4988798;28;20038;-80
2022/10/21 00:24:41;;;;;;;9.98;6.05;;;10.00;99.90;;;;;;4975015;28;20074;-80
2022/10/21 00:27:06;;;;;;;12.95;6.15;;;10.00;99.90;;;;;;4973552;28;20078;-80
2022/10/21 00:29:32;;;;;;;9.35;6.03;;;10.00;99.90;;;;;;4974923;28;20069;-79
2022/10/21 00:31:58;;;;;;;9.05;6.30;;;10.00;99.90;;;;;;4988066;28;20438;-80
2022/10/21 00:34:24;;;;;;;10.00;5.65;;;10.00;99.90;;;;;;4990677;28;20731;-80
2022/10/21 00:36:49;;;;;;;8.88;6.15;;;10.10;99.90;;;;;;4975384;28;20058;-79
2022/10/21 00:39:15;;;;;;;9.20;6.20;;;10.10;99.90;;;;;;4975073;28;20399;-79
2022/10/21 00:41:41;;;;;;;10.18;5.68;;;10.10;99.90;;;;;;4994930;28;20034;-80
2022/10/21 00:44:11;;;;;;;10.32;6.40;;;10.10;99.90;;;;;;4982360;28;20383;-80
2022/10/21 00:46:40;;;;;;;11.20;6.40;;;10.10;99.90;;;;;;4990885;28;20057;-80
2022/10/21 00:49:21;;;;;;;10.05;6.38;;;10.10;99.90;;;;;;4990787;28;20042;-80
2022/10/21 00:51:51;;;;;;;11.10;6.10;;;10.20;99.90;;;;;;4999647;28;20124;-80
2022/10/21 00:54:20;;;;;;;8.32;6.28;;;10.10;99.90;;;;;;4990812;28;20045;-81
2022/10/21 00:56:48;;;;;;;9.77;6.45;;;10.10;99.90;;;;;;4991169;28;20439;-80
2022/10/21 00:59:14;;;;;;;9.60;6.93;;;10.00;99.90;;;;;;4989300;28;20576;-80
2022/10/21 01:01:41;;;;;;;10.10;6.55;;;10.00;99.90;;;;;;4991432;28;20502;-80
2022/10/21 01:04:06;;;;;;;9.68;5.97;;;10.00;99.90;;;;;;4991549;28;20060;-81
2022/10/21 01:06:34;;;;;;;9.10;6.22;;;10.10;99.90;;;;;;4979575;28;20026;-80
2022/10/21 01:09:00;;;;;;;11.02;7.18;;;10.10;99.90;;;;;;4990160;28;20230;-81
2022/10/21 01:11:27;;;;;;;9.35;6.72;;;10.10;99.90;;;;;;5001055;28;20042;-80
2022/10/21 01:14:06;;;;;;;10.70;6.93;;;10.10;99.90;;;;;;5014593;28;20034;-80
2022/10/21 01:16:56;;;;;;;11.80;6.63;;;10.10;99.90;;;;;;5000430;28;20424;-80
2022/10/21 01:19:43;;;;;;;10.20;6.65;;;10.10;99.90;;;;;;4971563;28;20058;-80
2022/10/21 01:22:36;;;;;;;12.23;6.93;;;10.10;99.90;;;;;;5001146;28;20048;-81
2022/10/21 01:25:07;;;;;;;7.20;6.32;;;10.10;99.90;;;;;;4998100;28;20660;-80
2022/10/21 01:28:11;;;;;;;8.85;6.28;;;10.10;99.90;;;;;;5003901;28;20026;-81
2022/10/21 01:30:41;;;;;;;11.32;7.00;;;10.10;99.90;;;;;;5006391;28;20379;-81
2022/10/21 01:33:21;;;;;;;9.73;7.15;;;10.10;99.90;;;;;;4990282;28;20150;-80
2022/10/21 01:35:59;;;;;;;8.38;6.43;;;10.10;99.90;;;;;;4981711;28;20045;-81
2022/10/21 01:38:43;;;;;;;13.50;7.35;;;10.10;99.90;;;;;;4992946;28;20524;-79
2022/10/21 01:41:13;;;;;;;10.05;7.20;;;10.10;99.90;;;;;;4983626;28;20376;-79
2022/10/21 01:44:03;;;;;;;8.60;7.07;;;10.00;99.90;;;;;;5004955;28;20038;-80
2022/10/21 01:47:10;;;;;;;10.90;6.75;;;10.00;99.90;;;;;;5005679;28;20510;-80
2022/10/21 01:50:01;;;;;;;8.77;7.17;;;10.00;99.90;;;;;;4987373;28;20046;-80
2022/10/21 01:52:28;;;;;;;9.85;7.32;;;9.90;99.90;;;;;;4990260;28;20273;-80
2022/10/21 01:55:01;;;;;;;9.23;7.25;;;9.90;99.90;;;;;;4949569;28;20483;-81
2022/10/21 01:57:33;;;;;;;11.85;7.20;;;9.80;99.90;;;;;;4996068;28;20018;-81
2022/10/21 02:00:00;;;;;;;11.32;7.97;;;9.60;99.90;;;;;;4973120;28;20058;-80
2022/10/21 02:02:30;;;;;;;9.27;7.28;;;9.60;99.90;;;;;;4999792;28;20130;-81
2022/10/21 02:04:59;;;;;;;9.63;6.38;;;9.60;99.90;;;;;;4973689;28;20462;-81
2022/10/21 02:07:25;;;;;;;12.25;7.00;;;9.60;99.90;;;;;;4991388;28;20034;-82
2022/10/21 02:09:51;;;;;;;9.57;6.03;;;9.60;99.90;;;;;;4990155;28;20491;-81
2022/10/21 02:12:19;;;;;;;7.78;6.00;;;9.50;99.90;;;;;;4983752;28;20142;-80
2022/10/21 02:14:49;;;;;;;10.07;7.13;;;9.50;99.90;;;;;;4971251;28;20068;-80
2022/10/21 02:17:18;;;;;;;13.88;7.60;;;9.50;99.90;;;;;;4975325;28;20551;-81
2022/10/21 02:19:45;;;;;;;11.80;8.25;;;9.50;99.90;;;;;;4989862;28;20030;-82
2022/10/21 02:22:14;;;;;;;13.75;8.45;;;9.50;99.90;;;;;;4982223;28;20520;-81
2022/10/21 02:24:58;;;;;;;11.02;8.35;;;9.50;99.90;;;;;;4986380;28;20034;-81
2022/10/21 02:27:25;;;;;;;13.10;8.20;;;9.60;99.90;;;;;;5006863;28;20034;-81
2022/10/21 02:29:54;;;;;;;10.88;7.80;;;9.60;99.90;;;;;;5003590;28;20369;-82
2022/10/21 02:32:39;;;;;;;13.52;8.52;;;9.60;99.90;;;;;;4971103;28;20419;-79
2022/10/21 02:35:38;;;;;;;13.23;8.60;;;9.60;99.90;;;;;;4984610;28;20040;-81
2022/10/21 02:38:27;;;;;;;14.13;7.85;;;9.60;99.90;;;;;;4972083;28;20038;-80
2022/10/21 02:41:02;;;;;;;11.98;8.32;;;9.60;99.90;;;;;;4989953;28;20030;-81
2022/10/21 02:43:30;;;;;;;11.38;8.70;;;9.60;99.90;;;;;;4971868;28;20435;-81
2022/10/21 02:46:04;;;;;;;11.55;8.50;;;9.60;99.90;;;;;;4957729;28;20030;-82
2022/10/21 02:48:35;;;;;;;13.25;8.48;;;9.50;99.90;;;;;;4987486;28;20037;-83
2022/10/21 02:51:03;;;;;;;11.30;7.85;;;9.50;99.90;;;;;;4987630;28;20109;-81
2022/10/21 02:53:29;;;;;;;12.77;8.43;;;9.50;99.90;;;;;;4971158;28;20133;-80
2022/10/21 02:55:55;;;;;;;15.00;9.00;;;9.50;99.90;;;;;;4991373;28;20092;-81
2022/10/21 02:58:21;;;;;;;11.90;8.88;;;9.50;99.90;;;;;;4974366;28;20034;-81
2022/10/21 03:00:46;;;;;;;11.75;8.15;;;9.50;99.90;;;;;;4989158;28;20048;-82
2022/10/21 03:03:12;;;;;;;13.32;7.85;;;9.50;99.90;;;;;;4971518;28;20056;-82
2022/10/21 03:05:38;;;;;;;12.50;8.57;;;9.40;99.90;;;;;;4994959;28;20041;-83
2022/10/21 03:08:04;;;;;;;12.57;8.73;;;9.30;99.90;;;;;;4989081;28;20042;-80
2022/10/21 03:10:30;;;;;;;12.32;8.60;;;9.30;99.90;;;;;;4994008;28;20428;-81
2022/10/21 03:12:56;;;;;;;12.13;8.30;;;9.40;99.90;;;;;;4960117;28;20081;-82
2022/10/21 03:15:21;;;;;;;13.38;8.43;;;9.30;99.90;;;;;;4992089;28;20058;-80
2022/10/21 03:17:47;;;;;;;12.93;7.95;;;9.30;99.90;;;;;;4990694;28;20066;-82
2022/10/21 03:20:13;;;;;;;11.10;8.23;;;9.30;99.90;;;;;;4976152;28;20034;-82
2022/10/21 03:22:39;;;;;;;13.02;8.82;;;9.30;99.90;;;;;;4992186;28;20132;-82
2022/10/21 03:25:06;;;;;;;13.48;8.18;;;9.30;99.90;;;;;;4976911;28;20080;-81
2022/10/21 03:27:31;;;;;;;14.13;8.50;;;9.30;99.90;;;;;;4991954;28;20558;-81
2022/10/21 03:29:57;;;;;;;13.90;9.00;;;9.20;99.90;;;;;;4991768;28;20071;-81
2022/10/21 03:32:23;;;;;;;13.05;8.77;;;9.10;99.90;;;;;;5000994;28;20069;-80
2022/10/21 03:34:49;;;;;;;11.13;7.65;;;9.10;99.90;;;;;;4967718;28;20039;-80
2022/10/21 03:37:14;;;;;;;11.48;8.93;;;9.00;99.90;;;;;;4986135;28;20487;-79
2022/10/21 03:39:40;;;;;;;13.70;8.57;;;9.10;99.90;;;;;;4992197;28;20026;-80
2022/10/21 03:42:06;;;;;;;11.32;8.20;;;9.10;99.90;;;;;;4980858;28;20046;-79
2022/10/21 03:44:32;;;;;;;10.40;7.97;;;9.10;99.90;;;;;;4992477;28;20121;-81
2022/10/21 03:46:58;;;;;;;13.70;7.95;;;9.10;99.90;;;;;;4992020;28;20138;-79
2022/10/21 03:49:24;;;;;;;11.13;7.90;;;9.20;99.90;;;;;;4990967;28;20126;-80
2022/10/21 03:51:49;;;;;;;14.07;8.07;;;9.10;99.90;;;;;;4994026;28;20415;-80
2022/10/21 03:54:16;;;;;;;12.35;8.70;;;9.10;99.90;;;;;;4976304;28;20054;-81
2022/10/21 03:56:43;;;;;;;10.93;8.63;;;9.10;99.90;;;;;;4992369;28;20038;-80
2022/10/21 03:59:08;;;;;;;12.98;8.32;;;9.00;99.90;;;;;;4988834;28;20113;-82
2022/10/21 04:01:35;;;;;;;11.70;8.00;;;8.90;99.90;;;;;;4969480;28;20514;-81
2022/10/21 04:04:00;;;;;;;14.27;9.02;;;8.90;99.90;;;;;;4992269;28;20499;-80
2022/10/21 04:06:26;;;;;;;10.95;8.00;;;8.80;99.90;;;;;;5003275;28;20058;-79
2022/10/21 04:08:52;;;;;;;15.80;9.02;;;8.90;99.90;;;;;;4998902;28;20031;-80
2022/10/21 04:11:17;;;;;;;13.05;9.43;;;8.80;99.90;;;;;;4991516;28;20065;-80
2022/10/21 04:13:43;;;;;;;13.05;9.20;;;8.80;99.90;;;;;;4991312;28;20121;-81
2022/10/21 04:16:14;;;;;;;11.85;8.82;;;8.70;99.90;;;;;;4991450;28;20036;-82
2022/10/21 04:18:40;;;;;;;14.73;9.38;;;8.60;99.90;;;;;;4991414;28;20037;-81
2022/10/21 04:21:06;;;;;;;14.35;9.77;;;8.60;99.90;;;;;;4974570;28;20043;-82
2022/10/21 04:23:31;;;;;;;12.40;8.85;;;8.60;99.90;;;;;;4993161;28;20022;-82
2022/10/21 04:25:57;;;;;;;15.18;9.48;;;8.60;99.90;;;;;;4996453;28;20049;-80
2022/10/21 04:28:23;;;;;;;12.95;9.10;;;8.60;99.90;;;;;;4978106;28;20553;-82
2022/10/21 04:30:49;;;;;;;14.02;10.15;;;8.60;99.90;;;;;;4999596;28;20025;-82
2022/10/21 04:33:15;;;;;;;14.35;9.45;;;8.60;99.90;;;;;;4973954;28;20045;-81
2022/10/21 04:35:41;;;;;;;15.73;10.98;;;8.60;99.90;;;;;;4964143;28;20118;-81
2022/10/21 04:38:07;;;;;;;13.70;9.57;;;8.70;99.90;;;;;;4994636;28;20022;-81
2022/10/21 04:40:33;;;;;;;17.80;10.00;;;8.60;99.90;;;;;;4997590;28;20026;-81
2022/10/21 04:42:58;;;;;;;13.40;8.63;;;8.60;99.90;;;;;;5016635;28;20042;-80
2022/10/21 04:45:24;;;;;;;13.63;9.48;;;8.60;99.90;;;;;;4976337;28;20129;-81
2022/10/21 04:47:50;;;;;;;12.38;9.13;;;8.60;99.90;;;;;;4991917;28;20030;-80
2022/10/21 04:50:16;;;;;;;17.60;9.90;;;8.60;99.90;;;;;;4991746;28;20027;-80
2022/10/21 04:52:41;;;;;;;15.88;10.05;;;8.60;99.90;;;;;;4995456;28;20029;-81
2022/10/21 04:55:08;;;;;;;16.10;10.07;;;8.60;99.90;;;;;;5009896;28;20073;-82
2022/10/21 04:57:33;;;;;;;17.02;9.55;;;8.60;99.90;;;;;;5014590;28;20082;-81
2022/10/21 04:59:59;;;;;;;14.82;10.57;;;8.60;99.90;;;;;;4989517;28;20535;-82
2022/10/21 05:02:25;;;;;;;22.30;10.65;;;8.60;99.90;;;;;;5007415;28;20722;-81
2022/10/21 05:04:51;;;;;;;15.27;10.45;;;8.50;99.90;;;;;;4985292;28;20058;-83
2022/10/21 05:07:16;;;;;;;16.60;9.73;;;8.60;99.90;;;;;;4982633;28;20076;-82
2022/10/21 05:09:42;;;;;;;16.48;10.68;;;8.60;99.90;;;;;;4994634;28;20533;-81
2022/10/21 05:12:08;;;;;;;18.98;10.57;;;8.60;99.90;;;;;;4972975;28;20538;-82
2022/10/21 05:14:34;;;;;;;16.15;10.27;;;8.60;99.90;;;;;;4993013;28;20529;-82
2022/10/21 05:17:00;;;;;;;13.48;10.18;;;8.60;99.90;;;;;;4979691;28;20035;-81
2022/10/21 05:19:26;;;;;;;19.42;10.85;;;8.60;99.90;;;;;;4992695;28;20088;-83
2022/10/21 05:21:53;;;;;;;15.20;10.48;;;8.60;99.90;;;;;;4993364;28;20031;-81
2022/10/21 05:24:19;;;;;;;17.52;9.70;;;8.70;99.90;;;;;;4975635;28;20030;-81
2022/10/21 05:26:45;;;;;;;17.45;10.57;;;8.70;99.90;;;;;;4984579;28;20092;-82
2022/10/21 05:29:11;;;;;;;15.55;10.23;;;8.70;99.90;;;;;;4993651;28;20030;-82
2022/10/21 05:31:36;;;;;;;15.85;9.98;;;8.70;99.90;;;;;;5004501;28;20524;-82
2022/10/21 05:34:02;;;;;;;14.80;9.90;;;8.80;99.90;;;;;;4993956;28;20058;-81
2022/10/21 05:36:28;;;;;;;19.30;10.95;;;8.80;99.90;;;;;;5002704;28;20394;-81
2022/10/21 05:38:54;;;;;;;16.65;9.93;;;8.80;99.90;;;;;;5021322;28;20586;-82
2022/10/21 05:41:20;;;;;;;16.48;9.88;;;8.80;99.90;;;;;;4999485;28;20041;-81
2022/10/21 05:43:46;;;;;;;15.43;10.23;;;8.80;99.90;;;;;;4991509;28;20058;-81
2022/10/21 05:46:12;;;;;;;17.42;10.23;;;8.80;99.90;;;;;;4981455;28;20172;-81
2022/10/21 05:48:38;;;;;;;14.15;10.13;;;8.70;99.90;;;;;;4974297;28;20050;-80
2022/10/21 05:51:04;;;;;;;15.73;10.20;;;8.70;99.90;;;;;;4990578;28;20027;-81
2022/10/21 05:53:30;;;;;;;15.77;9.80;;;8.80;99.90;;;;;;4974566;28;20053;-80
2022/10/21 05:56:01;;;;;;;19.80;11.38;;;8.80;99.90;;;;;;5014100;28;20545;-81
2022/10/21 05:58:29;;;;;;;16.67;10.30;;;8.80;99.90;;;;;;5014735;28;20105;-82
2022/10/21 06:00:55;;;;;;;18.38;10.75;;;8.70;99.90;;;;;;4980722;28;20036;-81
2022/10/21 06:03:30;;;;;;;17.42;10.73;;;8.80;99.90;;;;;;4959409;28;20053;-82
2022/10/21 06:05:57;;;;;;;17.90;10.35;;;8.70;99.90;;;;;;4984006;28;20038;-82
2022/10/21 06:08:23;;;;;;;17.17;10.52;;;8.70;99.90;;;;;;5005278;28;20038;-82
2022/10/21 06:10:49;;;;;;;16.60;10.43;;;8.70;99.90;;;;;;4990677;28;20042;-81
2022/10/21 06:13:14;;;;;;;18.35;11.40;;;8.70;99.90;;;;;;4973885;28;20092;-81
2022/10/21 06:15:40;;;;;;;17.13;10.90;;;8.80;99.90;;;;;;4994779;28;20021;-80
2022/10/21 06:18:06;;;;;;;17.20;10.57;;;8.90;99.90;;;;;;4975348;28;20042;-81
2022/10/21 06:20:32;;;;;;;16.10;10.88;;;8.90;99.90;;;;;;4970990;28;20449;-81
2022/10/21 06:22:59;;;;;;;15.18;10.88;;;9.00;99.90;;;;;;4970446;28;20113;-81
2022/10/21 06:25:25;;;;;;;16.40;10.93;;;9.00;99.90;;;;;;4987384;28;20093;-80
2022/10/21 06:27:52;;;;;;;16.38;10.52;;;9.00;99.90;;;;;;4995532;28;20041;-80
2022/10/21 06:30:18;;;;;;;13.77;10.55;;;9.10;99.90;;;;;;4985762;28;20022;-82
2022/10/21 06:32:44;;;;;;;15.18;10.80;;;9.10;99.90;;;;;;4987481;28;20022;-80
2022/10/21 06:35:09;;;;;;;17.60;10.00;;;9.20;99.90;;;;;;4971861;28;20513;-81
2022/10/21 06:37:35;;;;;;;15.20;10.07;;;9.20;99.90;;;;;;5006339;28;20037;-82
2022/10/21 06:40:03;;;;;;;19.00;11.07;;;9.30;99.90;;;;;;4972002;28;20635;-82
2022/10/21 06:42:29;;;;;;;14.93;10.80;;;9.30;99.90;;;;;;4978162;28;20508;-82
2022/10/21 06:44:55;;;;;;;18.80;10.80;;;9.30;99.90;;;;;;4989012;28;20038;-82
2022/10/21 06:47:21;;;;;;;18.25;10.93;;;9.30;99.90;;;;;;4975991;28;20437;-82
2022/10/21 06:49:47;;;;;;;15.68;10.95;;;9.30;99.90;;;;;;4991993;28;20031;-81
2022/10/21 06:52:12;;;;;;;14.60;10.25;;;9.30;99.90;;;;;;4974959;28;20034;-81
2022/10/21 06:54:38;;;;;;;18.02;10.50;;;9.30;99.90;;;;;;4973689;28;20449;-81
2022/10/21 06:57:04;;;;;;;20.83;12.27;;;9.30;99.90;;;;;;4975069;28;20026;-80
2022/10/21 06:59:30;;;;;;;15.45;10.88;;;9.30;99.90;;;;;;4992868;28;20034;-80
2022/10/21 07:01:56;;;;;;;17.20;10.93;;;9.30;99.90;;;;;;4992374;28;20507;-80
2022/10/21 07:04:22;;;;;;;15.32;10.70;;;9.20;99.90;;;;;;4994035;28;20035;-80
2022/10/21 07:06:48;;;;;;;14.98;10.35;;;9.30;99.90;;;;;;4993093;28;20042;-81
2022/10/21 07:09:14;;;;;;;16.05;10.93;;;9.30;99.90;;;;;;4996489;28;20030;-82
2022/10/21 07:11:40;;;;;;;15.32;10.60;;;9.20;99.90;;;;;;4986538;28;20038;-81
2022/10/21 07:14:06;;;;;;;14.48;10.80;;;9.30;99.90;;;;;;4975615;28;20081;-81
2022/10/21 07:16:37;;;;;;;14.98;11.05;;;9.40;99.90;;;;;;4990256;28;20065;-81
2022/10/21 07:19:04;;;;;;;16.02;10.25;;;9.40;99.90;;;;;;5007494;28;20027;-81
2022/10/21 07:21:31;;;;;;;25.10;11.15;;;9.50;99.90;;;;;;4998575;28;20026;-81
2022/10/21 07:23:58;;;;;;;18.80;11.40;;;9.60;99.90;;;;;;5010992;28;20034;-81
2022/10/21 07:26:24;;;;;;;16.38;10.98;;;9.60;99.90;;;;;;5011646;28;20399;-80
2022/10/21 07:28:51;;;;;;;16.35;11.30;;;9.70;99.90;;;;;;5011323;28;20113;-80
2022/10/21 07:31:19;;;;;;;15.80;10.82;;;9.80;99.90;;;;;;4990456;28;20035;-82
2022/10/21 07:33:46;;;;;;;13.55;10.43;;;9.80;99.90;;;;;;4989111;28;20486;-80
2022/10/21 07:36:17;;;;;;;15.45;10.80;;;9.90;99.90;;;;;;4989483;28;20065;-79
2022/10/21 07:38:45;;;;;;;14.00;10.45;;;10.00;99.90;;;;;;4990091;28;20065;-81
2022/10/21 07:41:20;;;;;;;12.55;9.82;;;10.00;99.90;;;;;;5006673;28;20483;-82
2022/10/21 07:43:46;;;;;;;18.00;11.00;;;10.00;99.90;;;;;;4997115;28;20052;-81
2022/10/21 07:46:11;;;;;;;18.23;10.70;;;9.90;99.90;;;;;;4994458;28;20045;-81
2022/10/21 07:48:37;;;;;;;14.32;9.68;;;9.90;99.90;;;;;;4994337;28;20031;-81
2022/10/21 07:51:09;;;;;;;16.05;9.88;;;10.00;99.90;;;;;;4997368;28;20030;-81
2022/10/21 07:53:35;;;;;;;17.77;10.77;;;10.10;99.90;;;;;;4996460;28;20054;-80
2022/10/21 07:56:05;;;;;;;14.23;9.95;;;10.10;99.90;;;;;;4997341;28;20924;-81
2022/10/21 07:58:32;;;;;;;15.25;10.45;;;10.20;99.90;;;;;;4983020;28;20039;-81
2022/10/21 08:00:59;;;;;;;16.60;11.55;;;10.20;99.90;;;;;;4995404;28;20022;-81
2022/10/21 08:03:25;;;;;;;17.90;10.15;;;10.20;99.90;;;;;;4972331;28;20042;-83
2022/10/21 08:05:51;;;;;;;14.02;10.55;;;10.20;99.90;;;;;;4997082;28;20462;-81
2022/10/21 08:08:20;;;;;;;17.10;10.18;;;10.30;99.90;;;;;;5007857;28;20109;-80
2022/10/21 08:10:47;;;;;;;14.68;10.65;;;10.30;99.90;;;;;;4980089;28;20042;-84
2022/10/21 08:13:13;;;;;;;17.90;10.40;;;10.30;99.90;;;;;;5008411;28;20129;-84
2022/10/21 08:15:43;;;;;;;18.80;11.25;;;10.30;99.90;;;;;;4992528;28;20027;-80
2022/10/21 08:18:09;;;;;;;19.15;10.93;;;10.30;99.90;;;;;;4975660;28;20129;-82
2022/10/21 08:20:46;;;;;;;18.88;11.02;;;10.40;99.90;;;;;;4974852;28;20045;-79
2022/10/21 08:23:13;;;;;;;19.10;10.90;;;10.30;99.90;;;;;;4999558;28;20093;-80
2022/10/21 08:25:46;;;;;;;15.32;10.98;;;10.40;99.90;;;;;;4986180;28;20105;-81
2022/10/21 08:28:12;;;;;;;14.57;10.82;;;10.30;99.90;;;;;;4994598;28;20100;-82
2022/10/21 08:30:37;;;;;;;18.98;10.85;;;10.30;99.90;;;;;;4976447;28;20137;-80
2022/10/21 08:33:03;;;;;;;14.63;10.55;;;10.30;99.90;;;;;;4993821;28;20034;-81
2022/10/21 08:35:30;;;;;;;15.57;10.52;;;10.30;99.90;;;;;;4995551;28;20549;-83
2022/10/21 08:37:56;;;;;;;15.20;10.05;;;10.30;99.90;;;;;;4995423;28;20038;-83
2022/10/21 08:40:22;;;;;;;16.95;10.52;;;10.40;99.90;;;;;;4993651;28;20431;-80
2022/10/21 08:42:48;;;;;;;15.45;10.60;;;10.40;99.90;;;;;;4974538;28;20118;-81
2022/10/21 08:45:22;;;;;;;18.50;11.43;;;10.50;99.90;;;;;;4993390;28;20066;-85
2022/10/21 08:47:51;;;;;;;14.43;11.02;;;10.60;99.90;;;;;;4993314;28;20034;-81
2022/10/21 08:50:23;;;;;;;16.38;10.82;;;10.50;99.90;;;;;;4991771;28;20129;-82
2022/10/21 08:53:00;;;;;;;17.10;11.77;;;10.60;99.90;;;;;;4976224;28;20038;-81
2022/10/21 08:55:35;;;;;;;18.17;11.45;;;10.50;99.90;;;;;;5008998;28;20450;-83
2022/10/21 08:58:03;;;;;;;15.23;11.57;;;10.50;99.90;;;;;;4984880;28;20499;-81
2022/10/21 09:00:43;;;;;;;17.10;11.65;;;10.50;99.90;;;;;;4990825;28;20149;-80
2022/10/21 09:03:25;;;;;;;17.63;12.20;;;10.50;99.90;;;;;;5002949;28;20117;-81
2022/10/21 09:06:13;;;;;;;18.35;11.75;;;10.60;99.90;;;;;;5010166;28;20025;-81
2022/10/21 09:08:56;;;;;;;18.58;12.07;;;10.60;99.90;;;;;;4998952;28;20621;-80
2022/10/21 09:11:53;;;;;;;18.83;12.63;;;10.60;99.90;;;;;;4990318;28;20106;-83
2022/10/21 09:14:41;;;;;;;19.92;12.68;;;10.60;99.90;;;;;;4985264;28;20034;-83
2022/10/21 09:17:44;;;;;;;18.85;13.43;;;10.60;99.90;;;;;;5006324;28;20095;-79
2022/10/21 09:20:28;;;;;;;21.30;13.80;;;10.80;99.90;;;;;;5009043;28;20037;-82
2022/10/21 09:23:06;;;;;;;20.15;14.13;;;10.80;99.90;;;;;;4995770;28;20132;-83
2022/10/21 09:25:34;;;;;;;22.33;14.10;;;10.90;99.90;;;;;;4980970;28;20022;-81
2022/10/21 09:28:11;;;;;;;23.48;15.02;;;10.90;99.90;;;;;;5009576;28;20031;-81
2022/10/21 09:30:38;;;;;;;26.90;17.77;;;11.00;99.90;;;;;;4978857;28;20029;-83
2022/10/21 09:33:14;;;;;;;22.80;16.23;;;11.00;99.90;;;;;;4996271;28;20026;-80
2022/10/21 09:35:50;;;;;;;28.58;17.48;;;11.10;99.90;;;;;;4991209;28;20165;-81
2022/10/21 09:38:45;;;;;;;;;;;11.10;99.90;;;;;;4974166;28;20084;-82
2022/10/21 09:41:23;;;;;;;21.50;14.23;;;11.10;99.90;;;;;;4953608;28;19909;-81
2022/10/21 09:43:49;;;;;;;22.75;14.73;;;11.20;99.90;;;;;;4951090;28;20058;-82
2022/10/21 09:46:16;;;;;;;21.65;14.05;;;11.20;99.90;;;;;;4989403;28;20475;-81
2022/10/21 09:48:52;;;;;;;23.17;13.95;;;11.10;99.90;;;;;;4971660;28;20214;-79
2022/10/21 09:51:24;;;;;;;22.65;15.98;;;11.10;99.90;;;;;;4991468;28;20038;-84
2022/10/21 09:53:54;;;;;;;23.33;14.95;;;11.10;99.90;;;;;;4991709;28;20415;-82
2022/10/21 09:56:22;;;;;;;24.23;15.13;;;11.10;99.90;;;;;;5008196;28;20035;-84
2022/10/21 09:58:49;;;;;;;22.77;14.93;;;11.10;99.90;;;;;;4989027;28;20049;-83
2022/10/21 10:01:18;;;;;;;22.92;14.60;;;11.10;99.90;;;;;;4989057;28;20022;-82
2022/10/21 10:03:50;;;;;;;24.48;15.32;;;11.10;99.90;;;;;;4971209;28;20030;-82
2022/10/21 10:06:36;;;;;;;21.35;14.35;;;11.10;99.90;;;;;;4997541;28;20499;-81
2022/10/21 10:09:13;;;;;;;;;;;11.10;99.90;;;;;;4985954;28;20032;-83
2022/10/21 10:11:59;;;;;;;24.52;14.63;;;11.20;99.90;;;;;;4988417;28;19910;-85
2022/10/21 10:14:35;;;;;;;21.25;14.68;;;11.00;99.90;;;;;;4996763;28;20034;-82
2022/10/21 10:17:24;;;;;;;24.02;15.65;;;11.10;99.90;;;;;;4998143;28;20034;-81
2022/10/21 10:20:17;;;;;;;22.42;15.90;;;11.10;99.90;;;;;;5003268;28;20140;-80
2022/10/21 10:22:57;;;;;;;25.92;15.35;;;11.10;99.90;;;;;;4971326;28;20537;-82
2022/10/21 10:25:27;;;;;;;27.38;16.58;;;11.00;99.90;;;;;;4978376;28;20074;-81
2022/10/21 10:28:08;;;;;;;24.42;16.08;;;11.00;99.90;;;;;;4983843;28;20027;-81
2022/10/21 10:30:46;;;;;;;24.00;16.05;;;11.00;99.90;;;;;;4975998;28;20077;-82
2022/10/21 10:33:19;;;;;;;29.20;16.45;;;11.00;99.90;;;;;;5006942;28;20030;-82
2022/10/21 10:35:51;;;;;;;30.17;17.98;;;11.10;99.90;;;;;;4958405;28;20026;-81
2022/10/21 10:38:24;;;;;;;24.85;16.73;;;11.20;99.90;;;;;;4989071;28;20031;-82
2022/10/21 10:40:50;;;;;;;26.50;17.48;;;11.20;99.90;;;;;;4989121;28;20430;-80
2022/10/21 10:43:29;;;;;;;26.80;17.05;;;11.30;99.90;;;;;;5003458;28;20034;-81
2022/10/21 10:46:01;;;;;;;27.58;16.67;;;11.40;99.90;;;;;;5003399;28;20100;-81
2022/10/21 10:48:32;;;;;;;28.08;16.95;;;11.40;99.90;;;;;;5008453;28;20034;-81
2022/10/21 10:50:58;;;;;;;24.88;16.52;;;11.40;99.90;;;;;;4986137;28;20173;-82
2022/10/21 10:53:37;;;;;;;24.48;15.68;;;11.40;99.90;;;;;;4965793;28;20117;-81
2022/10/21 10:56:26;;;;;;;26.05;16.27;;;11.40;99.90;;;;;;4968761;28;20407;-81
2022/10/21 10:59:14;;;;;;;26.33;16.83;;;11.40;99.90;;;;;;5003454;28;20031;-81
2022/10/21 11:02:01;;;;;;;29.58;16.38;;;11.50;99.90;;;;;;4966574;28;20138;-80
2022/10/21 11:04:50;;;;;;;27.65;17.08;;;11.40;99.90;;;;;;5001613;28;20031;-83
2022/10/21 11:07:43;;;;;;;26.70;17.45;;;11.40;99.90;;;;;;4984662;28;20026;-83
2022/10/21 11:10:40;;;;;;;24.95;16.10;;;11.60;99.90;;;;;;4974465;28;20038;-82
2022/10/21 11:13:14;;;;;;;24.00;15.32;;;11.70;99.90;;;;;;4986355;28;20030;-83
2022/10/21 11:15:58;;;;;;;25.08;16.05;;;11.70;99.90;;;;;;4976443;28;20022;-82
2022/10/21 11:18:39;;;;;;;22.75;16.10;;;11.70;99.90;;;;;;4998593;28;20031;-81
2022/10/21 11:21:10;;;;;;;22.08;15.25;;;11.70;99.90;;;;;;4978322;28;20174;-83
2022/10/21 11:24:13;;;;;;;25.63;15.73;;;11.70;99.90;;;;;;4987983;28;20030;-82
2022/10/21 11:26:51;;;;;;;23.00;16.23;;;11.70;99.90;;;;;;4989155;28;20374;-81
2022/10/21 11:29:27;;;;;;;24.60;16.20;;;11.70;99.90;;;;;;4988622;28;20035;-81
2022/10/21 11:32:03;;;;;;;24.15;15.75;;;11.70;99.90;;;;;;4998468;28;20523;-81
2022/10/21 11:35:04;;;;;;;25.85;16.52;;;11.70;99.90;;;;;;4991563;28;20436;-81
2022/10/21 11:37:49;;;;;;;23.52;16.13;;;11.70;99.90;;;;;;4982726;28;20499;-81
2022/10/21 11:40:29;;;;;;;23.67;15.15;;;11.70;99.90;;;;;;4984937;28;20475;-82
2022/10/21 11:43:07;;;;;;;24.17;14.60;;;11.70;99.90;;;;;;5003839;28;20030;-82
2022/10/21 11:46:05;;;;;;;23.02;15.18;;;11.70;99.90;;;;;;5017046;28;20030;-82
2022/10/21 11:48:49;;;;;;;25.98;16.05;;;11.60;99.90;;;;;;5027065;28;20441;-82
2022/10/21 11:51:33;;;;;;;23.38;15.98;;;11.60;99.90;;;;;;5020125;28;20048;-82
2022/10/21 11:54:33;;;;;;;27.02;16.70;;;11.70;99.90;;;;;;5023011;28;20112;-82
2022/10/21 11:57:08;;;;;;;26.67;17.00;;;11.50;99.90;;;;;;5005438;28;20027;-82
2022/10/21 11:59:53;;;;;;;28.33;16.98;;;11.50;99.90;;;;;;4989099;28;20030;-83
2022/10/21 12:02:23;;;;;;;27.73;17.88;;;11.40;99.90;;;;;;4977181;28;20035;-82
2022/10/21 12:05:04;;;;;;;29.15;18.10;;;11.50;99.90;;;;;;4994166;28;20406;-83
2022/10/21 12:07:42;;;;;;;28.42;18.85;;;11.60;99.90;;;;;;4993498;28;20096;-82
2022/10/21 12:10:22;;;;;;;30.35;17.55;;;11.60;99.90;;;;;;4991461;28;20062;-82
2022/10/21 12:12:50;;;;;;;28.25;18.08;;;11.60;99.90;;;;;;4989246;28;20108;-81
2022/10/21 12:15:21;;;;;;;30.75;18.20;;;11.70;99.90;;;;;;4973801;28;20093;-82
2022/10/21 12:17:48;;;;;;;24.70;16.25;;;11.60;99.90;;;;;;4976978;28;20031;-86
2022/10/21 12:20:25;;;;;;;29.77;19.08;;;11.70;99.90;;;;;;4985246;28;20518;-82
2022/10/21 12:22:59;;;;;;;30.23;18.10;;;11.80;99.90;;;;;;5026788;28;20034;-81
2022/10/21 12:25:36;;;;;;;28.75;17.98;;;11.80;99.90;;;;;;4986243;28;20466;-82
2022/10/21 12:28:38;;;;;;;28.90;18.42;;;11.80;99.90;;;;;;4990876;28;20037;-83
2022/10/21 12:31:22;;;;;;;31.08;17.73;;;11.70;99.90;;;;;;4969238;28;20061;-83
2022/10/21 12:33:48;;;;;;;28.55;17.98;;;11.80;99.90;;;;;;4993294;28;20113;-83
2022/10/21 12:36:17;;;;;;;31.58;19.60;;;11.80;99.90;;;;;;4987318;28;20093;-81
2022/10/21 12:38:51;;;;;;;29.38;18.65;;;11.80;99.90;;;;;;4983379;28;20018;-83
2022/10/21 12:41:35;;;;;;;33.75;19.02;;;11.90;99.90;;;;;;4991469;28;20097;-83
2022/10/21 12:44:00;;;;;;;29.20;18.88;;;11.90;99.90;;;;;;4962215;28;20132;-81
2022/10/21 12:46:51;;;;;;;30.10;17.92;;;12.00;99.90;;;;;;4976088;28;20109;-83
2022/10/21 12:49:32;;;;;;;31.20;18.80;;;12.00;99.90;;;;;;4994126;28;20037;-83
2022/10/21 12:52:19;;;;;;;29.27;18.42;;;12.00;99.90;;;;;;5003332;28;20058;-83
2022/10/21 12:55:21;;;;;;;29.42;18.25;;;11.90;99.90;;;;;;5000932;28;20036;-86
2022/10/21 12:57:57;;;;;;;26.05;17.83;;;12.00;99.90;;;;;;4978252;28;20039;-87
2022/10/21 13:00:26;;;;;;;27.55;16.42;;;11.90;99.90;;;;;;4989219;28;20026;-85